Tiempo atmosférico en la estación meteorológica de Agüimes, Las Palmas (306 m.)



Fecha
DESCASC
Temp. máxima en grados centígrados (hora)
DESCASC
Temp. mínima en grados centígrados (hora)
DESCASC
Temp. media en grados centígrados
DESCASC
Racha de viento máxima en m/sg (hora)
DESCASC
Velocidad máxima media en intervalos de 10 minutos(hora)
DESCASC
Precipitaciones diarias en mm
DESCASC
Precipitaciones de 00:00 a 06:00 en mm
DESCASC
Precipitaciones de 06:00 a 12:00 en mm
DESCASC
Precipitaciones de 12:00 a 18:00 en mm
DESCASC
Precipitaciones de 18:00 a 24:00 en mm
DESCASC
29-10-2020 25.3 (12:40) 16.9 (23:59) 21.1 13.61 (11:00) 8.89 (11:00) 0 0 0 0 0
28-10-2020 23.2 (14:40) 18.2 (02:00) 20.7 13.89 (16:20) 10 (16:20) 0 0 0 0 0
27-10-2020 23.9 (14:20) 18.3 (00:00) 21.1 15.83 (12:30) 10.83 (12:00) 0 0 0 0 0
26-10-2020 24.2 (14:10) 17.6 (00:00) 20.9 17.5 (09:30) 12.5 (09:30) 0 0 0 0 0
25-10-2020 23.9 (13:30) 17.6 (00:00) 20.8 16.94 (12:00) 11.67 (12:00) 0 0 0 0 0
24-10-2020 23.3 (15:40) 17.3 (00:00) 20.3 15.83 (10:40) 11.67 (23:10) 0 0 0 0 0
23-10-2020 23.4 (14:40) 17 (00:00) 20.2 12.78 (15:00) 8.06 (17:00) 0 0 0 0 0
22-10-2020 23.3 (12:30) 17 (00:00) 20.1 12.22 (15:10) 8.61 (16:10) 0.2 0.2 0 0 0
21-10-2020 22.4 (13:10) 18.3 (00:00) 20.3 8.06 (20:20) 4.72 (17:40) 2.2 0 0.4 1.8 0
20-10-2020 30.5 (15:00) 20.2 (00:00) 25.4 18.06 (13:10) 11.39 (08:00) 0 0 0 0 0
19-10-2020 27.4 (14:00) 16.7 (00:00) 22.1 7.22 (14:10) 4.44 (14:10) 0 0 0 0 0
18-10-2020 22.1 (16:50) 16.8 (00:00) 19.4 8.61 (17:10) 5.56 (17:10) 0 0 0 0 0
17-10-2020 23.3 (11:40) 18 (00:00) 20.6 7.5 (11:20) 4.72 (00:10) 0 0 0 0 0
16-10-2020 24.8 (15:30) 18.6 (00:00) 21.7 11.39 (17:10) 8.06 (17:00) 0 0 0 0 0
15-10-2020 25.4 (14:00) 18.2 (00:00) 21.8 12.22 (00:20) 8.61 (00:10) 0 0 0 0 0
14-10-2020 26.8 (16:00) 18.5 (00:00) 22.6 14.17 (23:40) 10.28 (23:40) 0 0 0 0 0
13-10-2020 31.5 (13:10) 21.7 (00:00) 26.6 13.33 (22:40) 9.17 (01:00) 0 0 0 0 0
12-10-2020 34.8 (15:30) 22.1 (00:00) 28.4 10 (03:30) 7.22 (03:30) 0 0 0 0 0
11-10-2020 29.1 (13:50) 19.3 (00:00) 24.2 15.83 (06:20) 10 (06:10) 0 0 0 0 0
10-10-2020 27.1 (12:50) 19.8 (00:00) 23.4 15 (18:30) 10.28 (14:30) 0 0 0 0 0
09-10-2020 28.8 (16:00) 20.7 (00:00) 24.8 16.39 (11:50) 11.39 (10:00) 0 0 0 0 0
08-10-2020 30.5 (14:40) 19.4 (00:00) 24.9 11.39 (11:30) 8.61 (11:40) 0 0 0 0 0
07-10-2020 27.9 (15:40) 18.4 (00:00) 23.1 11.11 (00:30) 6.67 (00:30) 0 0 0 0 0
06-10-2020 22.9 (12:50) 18.6 (00:00) 20.8 13.89 (08:50) 9.72 (08:50) 0 0 0 0 0
05-10-2020 25.3 (14:40) 18.9 (00:00) 22.1 14.17 (10:20) 9.72 (10:30) 0 0 0 0 0
04-10-2020 23.8 (15:30) 19.4 (00:00) 21.6 16.11 (17:00) 11.39 (17:00) 4.4 0 3.8 0.6 0
03-10-2020 26.3 (15:00) 19.5 (00:00) 22.9 17.5 (01:50) 11.67 (01:50) 0 0 0 0 0
02-10-2020 26.4 (15:50) 18.4 (00:00) 22.4 17.78 (17:00) 12.22 (17:00) 0 0 0 0 0
01-10-2020 26.4 (13:50) 19.7 (00:00) 23.1 16.67 (20:20) 11.39 (17:40) 0 0 0 0 0
30-09-2020 26.2 (14:30) 19.1 (00:00) 22.7 15.28 (17:50) 10.28 (17:20) 0 0 0 0 0

Gráficas

Temp. máximas Temp. mínimas Temp. medias Precipitaciones Rachas de viento máximas Velocidades máximas media en intervalos de 10 minutos

Datos horarios

Fecha y hora oficial Temperatura (ºC) Velocidad del viento (km/h) Dirección del viento Racha (km/h) Dirección de racha Precipitación (mm) Presión (hPa) Tendencia (hPa) Humedad (%)
2020-10-29 23:00:00 17.6 4 Oeste 12 Norte 0 -- -- 78
2020-10-29 22:00:00 17.5 3 Este 6 Sudeste 0 -- -- 80
2020-10-29 21:00:00 18.1 0 Calma 4 Sudoeste 0 -- -- 76
2020-10-29 20:00:00 18.8 0 Calma 8 Sur 0 -- -- 76
2020-10-29 19:00:00 19.8 6 Sur 20 Sur 0 -- -- 71
2020-10-29 18:00:00 20.9 16 Norte 37 Norte 0 -- -- 65
2020-10-29 17:00:00 22.1 23 Norte 39 Norte 0 -- -- 60
2020-10-29 16:00:00 23.6 22 Norte 40 Norte 0 -- -- 57
2020-10-29 15:00:00 23.7 26 Norte 44 Nordeste 0 -- -- 56
2020-10-29 14:00:00 24.9 30 Norte 42 Nordeste 0 -- -- 53
2020-10-29 13:00:00 24.8 28 Nordeste 42 Norte 0 -- -- 52
2020-10-29 12:00:00 23.9 26 Norte 47 Norte 0 -- -- 55
2020-10-29 11:00:00 22.8 32 Norte 49 Norte 0 -- -- 58
2020-10-29 10:00:00 22.3 21 Norte 39 Norte 0 -- -- 55
2020-10-29 09:00:00 20.4 23 Norte 35 Nordeste 0 -- -- 64
2020-10-29 08:00:00 18.3 15 Norte 36 Norte 0 -- -- 75
2020-10-29 07:00:00 18 23 Norte 40 Norte 0 -- -- 77
2020-10-29 06:00:00 18.2 18 Norte 29 Norte 0 -- -- 71
2020-10-29 05:00:00 18.2 19 Norte 33 Norte 0 -- -- 72
2020-10-29 04:00:00 18 21 Norte 36 Norte 0 -- -- 76
2020-10-29 03:00:00 17.9 20 Norte 33 Nordeste 0 -- -- 73
2020-10-29 02:00:00 18.2 21 Norte 38 Norte 0 -- -- 69
2020-10-29 01:00:00 18 23 Norte 44 Norte 0 -- -- 72
2020-10-29 00:00:00 18.8 16 Norte 41 Nordeste 0 -- -- 66
2020-10-28 23:00:00 18.8 21 Norte 41 Nordeste 0 -- -- 70
2020-10-28 22:00:00 18.4 24 Norte 42 Norte 0 -- -- 73
2020-10-28 21:00:00 18.7 24 Norte 38 Norte 0 -- -- 69
2020-10-28 20:00:00 18.9 22 Norte 43 Norte 0 -- -- 65
2020-10-28 19:00:00 18.9 31 Norte 47 Norte 0 -- -- 66
2020-10-28 18:00:00 19.4 30 Norte 47 Nordeste 0 -- -- 63
2020-10-28 17:00:00 20.5 32 Norte 50 Norte 0 -- -- 62
2020-10-28 16:00:00 21.8 33 Norte 48 Norte 0 -- -- 59
2020-10-28 15:00:00 22.5 35 Nordeste 49 Nordeste 0 -- -- 57
2020-10-28 14:00:00 22.6 29 Norte 48 Norte 0 -- -- 54
2020-10-28 13:00:00 21.2 31 Norte 46 Norte 0 -- -- 61
2020-10-28 12:00:00 19.3 27 Norte 47 Nordeste 0 -- -- 72
2020-10-28 11:00:00 19.7 24 Norte 38 Norte 0 -- -- 68
2020-10-28 10:00:00 19.1 25 Norte 38 Norte 0 -- -- 68
2020-10-28 09:00:00 18.6 20 Norte 34 Norte 0 -- -- 71
2020-10-28 08:00:00 19.1 19 Norte 35 Norte 0 -- -- 63
2020-10-28 07:00:00 18.2 21 Norte 39 Norte 0 -- -- 63
2020-10-28 06:00:00 18.2 24 Norte 36 Norte 0 -- -- 67
2020-10-28 05:00:00 18.2 21 Norte 34 Norte 0 -- -- 67
2020-10-28 04:00:00 18.2 15 Norte 32 Norte 0 -- -- 68
2020-10-28 03:00:00 18.3 20 Norte 31 Norte 0 -- -- 68
2020-10-28 02:00:00 18.2 22 Norte 35 Norte 0 -- -- 71
2020-10-28 01:00:00 18.6 18 Norte 33 Norte 0 -- -- 66
2020-10-28 00:00:00 18.6 23 Norte 36 Norte 0 -- -- 69
2020-10-27 23:00:00 18.7 22 Norte 40 Norte 0 -- -- 70
2020-10-27 22:00:00 18.8 18 Norte 35 Nordeste 0 -- -- 71
2020-10-27 21:00:00 18.8 20 Norte 35 Nordeste 0 -- -- 75
2020-10-27 20:00:00 19.3 19 Nordeste 35 Nordeste 0 -- -- 72
2020-10-27 19:00:00 19.1 27 Norte 49 Nordeste 0 -- -- 75
2020-10-27 18:00:00 19.7 27 Norte 48 Norte 0 -- -- 71
2020-10-27 17:00:00 20.4 36 Norte 54 Nordeste 0 -- -- 66
2020-10-27 16:00:00 21.3 39 Norte 53 Norte 0 -- -- 68
2020-10-27 15:00:00 23 31 Nordeste 51 Nordeste 0 -- -- 64
2020-10-27 14:00:00 23.8 33 Nordeste 53 Norte 0 -- -- 53
2020-10-27 13:00:00 23.3 37 Norte 57 Norte 0 -- -- 54
2020-10-27 12:00:00 22.4 39 Norte 53 Norte 0 -- -- 62
2020-10-27 11:00:00 20.4 38 Norte 51 Nordeste 0 -- -- 74
2020-10-27 10:00:00 21.7 27 Nordeste 41 Norte 0 -- -- 70
2020-10-27 09:00:00 20.3 28 Nordeste 41 Norte 0 -- -- 67
2020-10-27 08:00:00 19.6 24 Norte 50 Norte 0 -- -- 63
2020-10-27 07:00:00 18.8 32 Norte 49 Norte 0 -- -- 65
2020-10-27 06:00:00 18.6 23 Norte 37 Norte 0 -- -- 73
2020-10-27 05:00:00 18.7 21 Norte 35 Norte 0 -- -- 73
2020-10-27 04:00:00 18.3 22 Norte 37 Norte 0 -- -- 77
2020-10-27 03:00:00 18.3 23 Norte 36 Norte 0 -- -- 79
2020-10-27 02:00:00 18.7 22 Norte 42 Norte 0 -- -- 75
2020-10-27 01:00:00 19.1 22 Norte 35 Norte 0 -- -- 68
2020-10-27 00:00:00 19 19 Norte 35 Norte 0 -- -- 73
2020-10-26 23:00:00 19.1 18 Norte 36 Norte 0 -- -- 70
2020-10-26 22:00:00 19 26 Norte 43 Norte 0 -- -- 70
2020-10-26 21:00:00 18.8 27 Norte 47 Norte 0 -- -- 75
2020-10-26 20:00:00 19.3 36 Norte 57 Norte 0 -- -- 67
2020-10-26 19:00:00 19.7 34 Norte 49 Norte 0 -- -- 63
2020-10-26 18:00:00 20 29 Norte 52 Norte 0 -- -- 69
2020-10-26 17:00:00 21.2 36 Norte 53 Norte 0 -- -- 65
2020-10-26 16:00:00 22.5 34 Norte 53 Nordeste 0 -- -- 60
2020-10-26 15:00:00 23.2 37 Nordeste 51 Nordeste 0 -- -- 59
2020-10-26 14:00:00 23.9 34 Nordeste 52 Norte 0 -- -- 54
2020-10-26 13:00:00 23.4 36 Norte 55 Norte 0 -- -- 57
2020-10-26 12:00:00 22.9 41 Norte 61 Norte 0 -- -- 55
2020-10-26 11:00:00 22.1 40 Norte 60 Norte 0 -- -- 57
2020-10-26 10:00:00 20.8 40 Norte 63 Norte 0 -- -- 64
2020-10-26 09:00:00 19.5 41 Norte 62 Norte 0 -- -- 66
2020-10-26 08:00:00 18.1 38 Norte 57 Norte 0 -- -- 71
2020-10-26 07:00:00 17.9 40 Norte 58 Norte 0 -- -- 73
2020-10-26 06:00:00 17.6 35 Norte 57 Norte 0 -- -- 76
2020-10-26 05:00:00 17.8 35 Norte 55 Norte 0 -- -- 74
2020-10-26 04:00:00 18.1 32 Norte 54 Norte 0 -- -- 71
2020-10-26 03:00:00 18 35 Norte 60 Norte 0 -- -- 73
2020-10-26 02:00:00 17.9 32 Norte 52 Norte 0 -- -- 73
2020-10-26 01:00:00 17.9 33 Norte 53 Norte 0 -- -- 75
2020-10-26 00:00:00 18.1 31 Norte 49 Norte 0 -- -- 75
2020-10-25 23:00:00 18.2 36 Norte 50 Norte 0 -- -- 75
2020-10-25 22:00:00 18.3 32 Norte 57 Norte 0 -- -- 74
2020-10-25 21:00:00 18.7 34 Norte 57 Norte 0 -- -- 74
2020-10-25 20:00:00 18.8 37 Norte 59 Norte 0 -- -- 72
2020-10-25 19:00:00 18.9 34 Norte 52 Nordeste 0 -- -- 72
2020-10-25 18:00:00 19.4 36 Norte 56 Norte 0 -- -- 68
2020-10-25 17:00:00 20.8 36 Norte 52 Nordeste 0 -- -- 65
2020-10-25 16:00:00 21.9 38 Norte 57 Norte 0 -- -- 62
2020-10-25 15:00:00 22 33 Norte 54 Nordeste 0 -- -- 61
2020-10-25 14:00:00 23.3 35 Nordeste 52 Norte 0 -- -- 57
2020-10-25 13:00:00 23.6 36 Norte 58 Nordeste 0 -- -- 58
2020-10-25 12:00:00 22.4 42 Norte 61 Nordeste 0 -- -- 58
2020-10-25 11:00:00 22.2 37 Norte 59 Norte 0 -- -- 59
2020-10-25 10:00:00 20.9 41 Norte 59 Nordeste 0 -- -- 63
2020-10-25 09:00:00 19.7 38 Norte 55 Norte 0 -- -- 66
2020-10-25 08:00:00 18.1 29 Norte 46 Norte 0 -- -- 70
2020-10-25 07:00:00 17.8 33 Norte 47 Norte 0 -- -- 73
2020-10-25 06:00:00 17.6 28 Norte 47 Norte 0 -- -- 73
2020-10-25 05:00:00 17.8 31 Norte 45 Norte 0 -- -- 72
2020-10-25 04:00:00 17.9 28 Norte 46 Norte 0 -- -- 72
2020-10-25 03:00:00 17.8 30 Norte 48 Norte 0 -- -- 73
2020-10-25 02:00:00 18 33 Norte 60 Norte 0 -- -- 73
2020-10-25 01:00:00 18.3 34 Norte 51 Norte 0 -- -- 74
2020-10-25 00:00:00 18.6 27 Norte 56 Norte 0 -- -- 70
2020-10-24 23:00:00 18.5 37 Norte 56 Norte 0 -- -- 72
2020-10-24 22:00:00 18.8 31 Norte 45 Norte 0 -- -- 73
2020-10-24 21:00:00 19 31 Norte 44 Norte 0 -- -- 71
2020-10-24 20:00:00 19.1 28 Norte 42 Norte 0 -- -- 71
2020-10-24 19:00:00 19.6 28 Norte 41 Norte 0 -- -- 69
2020-10-24 18:00:00 20.7 28 Norte 45 Nordeste 0 -- -- 61
2020-10-24 17:00:00 21.9 28 Nordeste 49 Nordeste 0 -- -- 60
2020-10-24 16:00:00 22.6 30 Nordeste 48 Nordeste 0 -- -- 57
2020-10-24 15:00:00 23.1 31 Nordeste 49 Nordeste 0 -- -- 54
2020-10-24 14:00:00 21.8 34 Nordeste 52 Nordeste 0 -- -- 61
2020-10-24 13:00:00 22.7 35 Nordeste 51 Nordeste 0 -- -- 55
2020-10-24 12:00:00 20.9 38 Norte 55 Nordeste 0 -- -- 59
2020-10-24 11:00:00 19.8 30 Norte 57 Norte 0 -- -- 66
2020-10-24 10:00:00 19 29 Norte 48 Norte 0 -- -- 63
2020-10-24 09:00:00 18.1 30 Norte 49 Norte 0 -- -- 65
2020-10-24 08:00:00 17.6 27 Norte 46 Norte 0 -- -- 69
2020-10-24 07:00:00 18 31 Norte 51 Norte 0 -- -- 69
2020-10-24 06:00:00 17.7 32 Norte 48 Norte 0 -- -- 67
2020-10-24 05:00:00 17.5 32 Norte 45 Norte 0 -- -- 70
2020-10-24 04:00:00 17.3 23 Norte 39 Norte 0 -- -- 74
2020-10-24 03:00:00 17.5 24 Norte 38 Norte 0 -- -- 74
2020-10-24 02:00:00 17.7 20 Norte 32 Norte 0 -- -- 73
2020-10-24 01:00:00 17.8 20 Norte 34 Norte 0 -- -- 73
2020-10-24 00:00:00 18.2 22 Norte 41 Norte 0 -- -- 71
2020-10-23 23:00:00 18.4 22 Norte 36 Nordeste 0 -- -- 73
2020-10-23 22:00:00 18.3 21 Norte 35 Norte 0 -- -- 72
2020-10-23 21:00:00 18.3 23 Norte 40 Norte 0 -- -- 69
2020-10-23 20:00:00 18.5 23 Norte 37 Nordeste 0 -- -- 67
2020-10-23 19:00:00 19.2 26 Norte 38 Norte 0 -- -- 65
2020-10-23 18:00:00 20.9 24 Nordeste 40 Norte 0 -- -- 61
2020-10-23 17:00:00 21.9 29 Nordeste 44 Nordeste 0 -- -- 58
2020-10-23 16:00:00 22.7 26 Nordeste 43 Nordeste 0 -- -- 56
2020-10-23 15:00:00 23 28 Nordeste 46 Nordeste 0 -- -- 57
2020-10-23 14:00:00 23.1 24 Nordeste 37 Nordeste 0 -- -- 51
2020-10-23 13:00:00 22.7 24 Nordeste 39 Nordeste 0 -- -- 55
2020-10-23 12:00:00 20.6 19 Nordeste 36 Nordeste 0 -- -- 65
2020-10-23 11:00:00 20.2 23 Norte 38 Norte 0 -- -- 64
2020-10-23 10:00:00 19.8 20 Norte 35 Norte 0 -- -- 63
2020-10-23 09:00:00 17.9 18 Norte 28 Norte 0 -- -- 66
2020-10-23 08:00:00 17 18 Norte 31 Norte 0 -- -- 64
2020-10-23 07:00:00 17.2 20 Norte 32 Norte 0 -- -- 72
2020-10-23 06:00:00 17.4 20 Norte 32 Norte 0 -- -- 71
2020-10-23 05:00:00 17.4 24 Norte 33 Norte 0 -- -- 71
2020-10-23 04:00:00 17.4 18 Norte 27 Norte 0 -- -- 72
2020-10-23 03:00:00 17.2 16 Norte 27 Norte 0 -- -- 72
2020-10-23 02:00:00 17.6 18 Norte 31 Norte 0 -- -- 71
2020-10-23 01:00:00 17.7 15 Norte 31 Norte 0 -- -- 73
2020-10-23 00:00:00 17.9 23 Norte 32 Norte 0 -- -- 72
2020-10-22 23:00:00 17.9 22 Norte 39 Norte 0 -- -- 72
2020-10-22 22:00:00 18.1 21 Norte 34 Norte 0 -- -- 68
2020-10-22 21:00:00 18.8 22 Norte 35 Nordeste 0 -- -- 65
2020-10-22 20:00:00 19.3 21 Norte 36 Norte 0 -- -- 65
2020-10-22 19:00:00 19.6 26 Norte 37 Norte 0 -- -- 65
2020-10-22 18:00:00 20.4 24 Norte 43 Norte 0 -- -- 60
2020-10-22 17:00:00 22.2 25 Norte 43 Nordeste 0 -- -- 57
2020-10-22 16:00:00 22.3 25 Norte 44 Norte 0 -- -- 59
2020-10-22 15:00:00 21.9 28 Norte 41 Norte 0 -- -- 59
2020-10-22 14:00:00 21.9 25 Norte 42 Norte 0 -- -- 57
2020-10-22 13:00:00 22.7 28 Norte 43 Norte 0 -- -- 58
2020-10-22 12:00:00 22.5 24 Norte 39 Norte 0 -- -- 57
2020-10-22 11:00:00 21.6 14 Nordeste 34 Norte 0 -- -- 69
2020-10-22 10:00:00 20 7 Norte 27 Norte 0 -- -- 71
2020-10-22 09:00:00 18.1 14 Norte 25 Norte 0 -- -- 76
2020-10-22 08:00:00 17.1 8 Noroeste 21 Norte 0 -- -- 81
2020-10-22 07:00:00 17.2 6 Norte 19 Norte 0 -- -- 85
2020-10-22 06:00:00 17.7 8 Norte 13 Norte 0 -- -- 82
2020-10-22 05:00:00 18.4 6 Norte 10 Norte 0 -- -- 79
2020-10-22 04:00:00 18.5 8 Noroeste 17 Noroeste 0 -- -- 75
2020-10-22 03:00:00 17.8 4 Norte 10 Norte 0 -- -- 88
2020-10-22 02:00:00 18 4 Norte 10 Nordeste 0.2 -- -- 89
2020-10-22 01:00:00 18.3 5 Norte 8 Nordeste 0 -- -- 90
2020-10-22 00:00:00 18.6 4 Nordeste 7 Nordeste 0 -- -- 87
2020-10-21 23:00:00 18.7 4 Norte 11 Nordeste 0 -- -- 87
2020-10-21 22:00:00 18.5 3 Este 9 Sudoeste 0 -- -- 87
2020-10-21 21:00:00 18.3 2 Sudeste 29 Sur 0 -- -- 86
2020-10-21 20:00:00 19.6 8 Sur 16 Sur 0 -- -- 80
2020-10-21 19:00:00 19.8 13 Sur 21 Norte 0 -- -- 81
2020-10-21 18:00:00 19.4 14 Norte 26 Nordeste 0 -- -- 86
2020-10-21 17:00:00 20 9 Nordeste 22 Norte 0.2 -- -- 87
2020-10-21 16:00:00 19.8 7 Nordeste 19 Nordeste 1 -- -- 87
2020-10-21 15:00:00 20.7 9 Nordeste 21 Nordeste 0.4 -- -- 82
2020-10-21 14:00:00 20.9 14 Nordeste 26 Este 0.2 -- -- 84
2020-10-21 13:00:00 22.2 10 Este 19 Nordeste 0 -- -- 72
2020-10-21 12:00:00 21 8 Nordeste 17 Nordeste 0.4 -- -- 82
2020-10-21 11:00:00 21.5 6 Este 13 Sudeste 0 -- -- 74
2020-10-21 10:00:00 21.5 8 Sudeste 13 Sudeste 0 -- -- 73
2020-10-21 09:00:00 19.3 0 Calma 5 Oeste 0 -- -- 81
2020-10-21 08:00:00 19.2 3 Oeste 6 Oeste 0 -- -- 82
2020-10-21 07:00:00 19.2 2 Oeste 5 Oeste 0 -- -- 83
2020-10-21 06:00:00 19.4 4 Oeste 6 Oeste 0 -- -- 83
2020-10-21 05:00:00 19.4 3 Noroeste 7 Noroeste 0 -- -- 83
2020-10-21 04:00:00 19.9 2 Sudoeste 7 Sudoeste 0 -- -- 84
2020-10-21 03:00:00 20.2 2 Sur 10 Sur 0 -- -- 84
2020-10-21 02:00:00 20.6 8 Sur 12 Sudoeste 0 -- -- 84
2020-10-21 01:00:00 20.8 4 Sudeste 13 Sur 0 -- -- 88
2020-10-21 00:00:00 21.1 9 Sur 13 Sur 0 -- -- 87
2020-10-20 23:00:00 21.4 6 Sudoeste 15 Sur 0 -- -- 86
2020-10-20 22:00:00 21.5 8 Sudoeste 11 Sudoeste 0 -- -- 83
2020-10-20 21:00:00 21.7 8 Sur 11 Sur 0 -- -- 84
2020-10-20 20:00:00 22.2 3 Este 18 Nordeste 0 -- -- 80
2020-10-20 19:00:00 23.6 11 Nordeste 26 Nordeste 0 -- -- 74
2020-10-20 18:00:00 27 8 Sudoeste 27 Sudoeste 0 -- -- 60
2020-10-20 17:00:00 28.6 22 Oeste 43 Oeste 0 -- -- 56
2020-10-20 16:00:00 29.8 9 Sudoeste 43 Oeste 0 -- -- 48
2020-10-20 15:00:00 30.5 21 Sudoeste 58 Sudoeste 0 -- -- 47
2020-10-20 14:00:00 29.2 33 Sudoeste 65 Sur 0 -- -- 41
2020-10-20 13:00:00 27.1 32 Sudoeste 61 Sudoeste 0 -- -- 45
2020-10-20 12:00:00 26.1 31 Sudoeste 59 Sudoeste 0 -- -- 48
2020-10-20 11:00:00 25.8 22 Sudoeste 58 Sudoeste 0 -- -- 49
2020-10-20 10:00:00 26.1 27 Sudoeste 58 Oeste 0 -- -- 47
2020-10-20 09:00:00 26.5 29 Oeste 64 Oeste 0 -- -- 43
2020-10-20 08:00:00 26.1 41 Oeste 64 Oeste 0 -- -- 43
2020-10-20 07:00:00 25.9 20 Sudoeste 46 Oeste 0 -- -- 43
2020-10-20 06:00:00 25.9 18 Sudoeste 53 Oeste 0 -- -- 44
2020-10-20 05:00:00 26 24 Oeste 41 Oeste 0 -- -- 45
2020-10-20 04:00:00 22.6 13 Sudoeste 29 Sudoeste 0 -- -- 66
2020-10-20 03:00:00 20.6 3 Noroeste 12 Sur 0 -- -- 84
2020-10-20 02:00:00 20.3 4 Oeste 10 Sur 0 -- -- 88
2020-10-20 01:00:00 20.8 2 Sudoeste 4 Oeste 0 -- -- 87
2020-10-20 00:00:00 21.3 3 Sudoeste 6 Sudoeste 0 -- -- 86
2020-10-19 23:00:00 21.7 3 Oeste 8 Sudoeste 0 -- -- 83
2020-10-19 22:00:00 22.3 4 Sur 6 Sur 0 -- -- 81
2020-10-19 21:00:00 23.2 3 Nordeste 6 Nordeste 0 -- -- 77
2020-10-19 20:00:00 24 3 Este 11 Este 0 -- -- 75
2020-10-19 19:00:00 25.2 5 Nordeste 15 Este 0 -- -- 70
2020-10-19 18:00:00 26.8 12 Nordeste 16 Nordeste 0 -- -- 66
2020-10-19 17:00:00 26.9 9 Nordeste 17 Nordeste 0 -- -- 64
2020-10-19 16:00:00 26.4 7 Este 20 Nordeste 0 -- -- 62
2020-10-19 15:00:00 26.6 9 Nordeste 26 Este 0 -- -- 60
2020-10-19 14:00:00 27.4 14 Nordeste 24 Este 0 -- -- 57
2020-10-19 13:00:00 26.5 10 Nordeste 19 Este 0 -- -- 59
2020-10-19 12:00:00 25.3 6 Sudeste 12 Este 0 -- -- 59
2020-10-19 11:00:00 23.1 4 Este 13 Sur 0 -- -- 69
2020-10-19 10:00:00 21 6 Sur 12 Sur 0 -- -- 76
2020-10-19 09:00:00 18.5 3 Sudoeste 14 Norte 0 -- -- 84
2020-10-19 08:00:00 17.2 9 Nordeste 13 Nordeste 0 -- -- 85
2020-10-19 07:00:00 16.9 2 Noroeste 9 Oeste 0 -- -- 84
2020-10-19 06:00:00 17.4 4 Sudoeste 10 Norte 0 -- -- 81
2020-10-19 05:00:00 17.7 8 Norte 15 Norte 0 -- -- 86
2020-10-19 04:00:00 17.9 10 Norte 14 Norte 0 -- -- 82
2020-10-19 03:00:00 17.7 9 Norte 13 Norte 0 -- -- 82
2020-10-19 02:00:00 16.7 4 Norte 6 Norte 0 -- -- 89
2020-10-19 01:00:00 17.2 0 Calma 4 Sudoeste 0 -- -- 90
2020-10-19 00:00:00 17.2 3 Noroeste 4 Oeste 0 -- -- 90
2020-10-18 23:00:00 17.5 0 Calma 4 Sur 0 -- -- 90
2020-10-18 22:00:00 18 4 Sur 10 Sur 0 -- -- 88
2020-10-18 21:00:00 18.4 4 Sur 14 Sur 0 -- -- 86
2020-10-18 20:00:00 18.9 13 Sur 22 Sudoeste 0 -- -- 85
2020-10-18 19:00:00 19.7 15 Sur 29 Sur 0 -- -- 81
2020-10-18 18:00:00 20.9 16 Sur 31 Sur 0 -- -- 75
2020-10-18 17:00:00 22.1 18 Sur 31 Sur 0 -- -- 71
2020-10-18 16:00:00 21.4 18 Sur 27 Sur 0 -- -- 73
2020-10-18 15:00:00 20.5 16 Sur 24 Sudoeste 0 -- -- 76
2020-10-18 14:00:00 20.5 12 Sur 24 Sur 0 -- -- 76
2020-10-18 13:00:00 20 17 Sur 24 Sur 0 -- -- 77
2020-10-18 12:00:00 19.6 13 Sur 19 Sur 0 -- -- 80
2020-10-18 11:00:00 19.4 13 Sur 18 Sur 0 -- -- 83
2020-10-18 10:00:00 18.7 12 Sur 17 Sur 0 -- -- 86
2020-10-18 09:00:00 17.5 6 Oeste 10 Sudoeste 0 -- -- 87
2020-10-18 08:00:00 16.9 6 Oeste 8 Oeste 0 -- -- 88
2020-10-18 07:00:00 17 6 Oeste 8 Sudoeste 0 -- -- 86
2020-10-18 06:00:00 17.1 3 Noroeste 6 Oeste 0 -- -- 85
2020-10-18 05:00:00 16.9 3 Noroeste 5 Norte 0 -- -- 80
2020-10-18 04:00:00 17 3 Norte 9 Noroeste 0 -- -- 80
2020-10-18 03:00:00 17.2 6 Noroeste 12 Norte 0 -- -- 80
2020-10-18 02:00:00 17.8 7 Norte 11 Norte 0 -- -- 83
2020-10-18 01:00:00 17.9 8 Norte 15 Norte 0 -- -- 82
2020-10-18 00:00:00 18.2 8 Norte 13 Nordeste 0 -- -- 81
2020-10-17 23:00:00 18.8 8 Nordeste 15 Nordeste 0 -- -- 80
2020-10-17 22:00:00 19 9 Nordeste 13 Nordeste 0 -- -- 78
2020-10-17 21:00:00 19.1 9 Nordeste 15 Nordeste 0 -- -- 76
2020-10-17 20:00:00 19.5 4 Nordeste 15 Norte 0 -- -- 71
2020-10-17 19:00:00 19.8 9 Norte 18 Norte 0 -- -- 70
2020-10-17 18:00:00 19.6 12 Norte 19 Norte 0 -- -- 75
2020-10-17 17:00:00 19.3 12 Norte 17 Norte 0 -- -- 79
2020-10-17 16:00:00 19.2 11 Norte 21 Nordeste 0 -- -- 80
2020-10-17 15:00:00 20.3 9 Nordeste 19 Este 0 -- -- 74
2020-10-17 14:00:00 21 10 Nordeste 23 Este 0 -- -- 71
2020-10-17 13:00:00 21.7 13 Nordeste 26 Nordeste 0 -- -- 69
2020-10-17 12:00:00 21.8 15 Este 27 Este 0 -- -- 70
2020-10-17 11:00:00 22.2 17 Nordeste 26 Nordeste 0 -- -- 65
2020-10-17 10:00:00 21.2 15 Nordeste 24 Nordeste 0 -- -- 64
2020-10-17 09:00:00 18.6 11 Nordeste 21 Norte 0 -- -- 76
2020-10-17 08:00:00 18.1 13 Nordeste 25 Norte 0 -- -- 80
2020-10-17 07:00:00 18.7 14 Norte 25 Norte 0 -- -- 80
2020-10-17 06:00:00 18.8 14 Nordeste 23 Nordeste 0 -- -- 80
2020-10-17 05:00:00 18.8 14 Nordeste 22 Nordeste 0 -- -- 79
2020-10-17 04:00:00 19 13 Nordeste 21 Norte 0 -- -- 80
2020-10-17 03:00:00 19 13 Norte 21 Norte 0 -- -- 79
2020-10-17 02:00:00 19 15 Norte 24 Nordeste 0 -- -- 79
2020-10-17 01:00:00 19.1 14 Norte 25 Norte 0 -- -- 81
2020-10-17 00:00:00 19.4 20 Norte 28 Nordeste 0 -- -- 78
2020-10-16 23:00:00 19.5 17 Nordeste 31 Nordeste 0 -- -- 76
2020-10-16 22:00:00 19.7 20 Nordeste 33 Nordeste 0 -- -- 78
2020-10-16 21:00:00 19.7 21 Norte 35 Nordeste 0 -- -- 78
2020-10-16 20:00:00 19.8 22 Nordeste 36 Nordeste 0 -- -- 78
2020-10-16 19:00:00 20.7 24 Nordeste 39 Norte 0 -- -- 71
2020-10-16 18:00:00 22.3 27 Nordeste 41 Norte 0 -- -- 64
2020-10-16 17:00:00 23.4 29 Nordeste 40 Nordeste 0 -- -- 63
2020-10-16 16:00:00 24.1 28 Nordeste 41 Nordeste 0 -- -- 61
2020-10-16 15:00:00 24.6 25 Nordeste 37 Nordeste 0 -- -- 59
2020-10-16 14:00:00 24.2 26 Nordeste 37 Nordeste 0 -- -- 60
2020-10-16 13:00:00 24.2 22 Nordeste 34 Nordeste 0 -- -- 61
2020-10-16 12:00:00 23.3 23 Nordeste 32 Nordeste 0 -- -- 64
2020-10-16 11:00:00 22.1 16 Nordeste 27 Nordeste 0 -- -- 70
2020-10-16 10:00:00 20 14 Nordeste 24 Nordeste 0 -- -- 78
2020-10-16 09:00:00 19.5 14 Nordeste 23 Nordeste 0 -- -- 78
2020-10-16 08:00:00 18.6 14 Nordeste 26 Nordeste 0 -- -- 83
2020-10-16 07:00:00 19.1 17 Nordeste 30 Nordeste 0 -- -- 80
2020-10-16 06:00:00 19.2 18 Nordeste 30 Nordeste 0 -- -- 83
2020-10-16 05:00:00 19.3 20 Nordeste 28 Nordeste 0 -- -- 84
2020-10-16 04:00:00 19.3 14 Norte 27 Nordeste 0 -- -- 83
2020-10-16 03:00:00 19.5 13 Nordeste 24 Norte 0 -- -- 83
2020-10-16 02:00:00 19.5 14 Nordeste 30 Nordeste 0 -- -- 83
2020-10-16 01:00:00 19.5 19 Nordeste 36 Nordeste 0 -- -- 84
2020-10-16 00:00:00 19.4 24 Norte 39 Nordeste 0 -- -- 83
2020-10-15 23:00:00 19.6 28 Norte 42 Nordeste 0 -- -- 81
2020-10-15 22:00:00 19.7 27 Norte 42 Nordeste 0 -- -- 80
2020-10-15 21:00:00 19.4 24 Norte 42 Norte 0 -- -- 81
2020-10-15 20:00:00 19.9 22 Nordeste 34 Nordeste 0 -- -- 79
2020-10-15 19:00:00 21 16 Nordeste 23 Nordeste 0 -- -- 75
2020-10-15 18:00:00 22.6 12 Este 21 Este 0 -- -- 70
2020-10-15 17:00:00 23.3 10 Este 34 Nordeste 0 -- -- 67
2020-10-15 16:00:00 24.2 28 Nordeste 42 Nordeste 0 -- -- 63
2020-10-15 15:00:00 24.8 26 Nordeste 41 Nordeste 0 -- -- 61
2020-10-15 14:00:00 25.4 20 Nordeste 30 Nordeste 0 -- -- 59
2020-10-15 13:00:00 24.5 22 Nordeste 36 Nordeste 0 -- -- 62
2020-10-15 12:00:00 24.1 21 Nordeste 33 Nordeste 0 -- -- 63
2020-10-15 11:00:00 22.8 22 Nordeste 42 Norte 0 -- -- 67
2020-10-15 10:00:00 20.9 28 Nordeste 38 Nordeste 0 -- -- 72
2020-10-15 09:00:00 19.2 21 Norte 44 Nordeste 0 -- -- 77
2020-10-15 08:00:00 18.2 21 Norte 34 Nordeste 0 -- -- 81
2020-10-15 07:00:00 18.3 22 Norte 32 Nordeste 0 -- -- 82
2020-10-15 06:00:00 18.3 20 Norte 38 Norte 0 -- -- 82
2020-10-15 05:00:00 18.3 24 Norte 41 Norte 0 -- -- 82
2020-10-15 04:00:00 18.4 29 Norte 41 Norte 0 -- -- 82
2020-10-15 03:00:00 18.6 24 Norte 37 Norte 0 -- -- 83
2020-10-15 02:00:00 18.8 20 Norte 34 Norte 0 -- -- 81
2020-10-15 01:00:00 19 24 Norte 44 Nordeste 0 -- -- 82
2020-10-15 00:00:00 19.5 34 Nordeste 51 Nordeste 0 -- -- 76
2020-10-14 23:00:00 20.9 32 Nordeste 43 Norte 0 -- -- 57
2020-10-14 22:00:00 21 30 Nordeste 44 Norte 0 -- -- 44
2020-10-14 21:00:00 20.1 26 Norte 37 Norte 0 -- -- 77
2020-10-14 20:00:00 20.8 23 Nordeste 35 Nordeste 0 -- -- 73
2020-10-14 19:00:00 22.5 22 Nordeste 39 Norte 0 -- -- 64
2020-10-14 18:00:00 24.5 27 Nordeste 37 Nordeste 0 -- -- 52
2020-10-14 17:00:00 25.6 24 Nordeste 36 Nordeste 0 -- -- 50
2020-10-14 16:00:00 26.8 21 Nordeste 36 Nordeste 0 -- -- 54
2020-10-14 15:00:00 26.5 20 Nordeste 28 Nordeste 0 -- -- 61
2020-10-14 14:00:00 26.2 18 Nordeste 28 Nordeste 0 -- -- 62
2020-10-14 13:00:00 26.5 18 Nordeste 27 Este 0 -- -- 56
2020-10-14 12:00:00 25.7 14 Nordeste 21 Nordeste 0 -- -- 60
2020-10-14 11:00:00 23.6 8 Nordeste 23 Nordeste 0 -- -- 65
2020-10-14 10:00:00 20.7 9 Nordeste 16 Este 0 -- -- 84
2020-10-14 09:00:00 19.2 5 Nordeste 13 Nordeste 0 -- -- 91
2020-10-14 08:00:00 18.6 5 Nordeste 14 Norte 0 -- -- 88
2020-10-14 07:00:00 18.8 5 Nordeste 26 Nordeste 0 -- -- 88
2020-10-14 06:00:00 19.3 20 Nordeste 28 Norte 0 -- -- 82
2020-10-14 05:00:00 19.7 10 Nordeste 27 Nordeste 0 -- -- 80
2020-10-14 04:00:00 21.1 10 Nordeste 29 Norte 0 -- -- 44
2020-10-14 03:00:00 22.9 22 Norte 31 Norte 0 -- -- 29
2020-10-14 02:00:00 22.8 21 Norte 38 Norte 0 -- -- 28
2020-10-14 01:00:00 23 26 Norte 40 Norte 0 -- -- 27
2020-10-14 00:00:00 23.1 27 Norte 45 Norte 0 -- -- 30
2020-10-13 23:00:00 23 31 Nordeste 48 Nordeste 0 -- -- 39
2020-10-13 22:00:00 22.7 20 Nordeste 35 Nordeste 0 -- -- 49
2020-10-13 21:00:00 23.1 29 Nordeste 45 Nordeste 0 -- -- 54
2020-10-13 20:00:00 22.8 24 Nordeste 38 Norte 0 -- -- 71
2020-10-13 19:00:00 25.3 16 Nordeste 28 Nordeste 0 -- -- 66
2020-10-13 18:00:00 29.1 18 Nordeste 27 Nordeste 0 -- -- 40
2020-10-13 17:00:00 28.7 13 Nordeste 17 Nordeste 0 -- -- 54
2020-10-13 16:00:00 27.4 5 Nordeste 14 Sur 0 -- -- 50
2020-10-13 15:00:00 27.4 6 Sur 17 Sur 0 -- -- 45
2020-10-13 14:00:00 29.3 9 Sur 19 Sudeste 0 -- -- 39
2020-10-13 13:00:00 31.4 5 Nordeste 18 Este 0 -- -- 21
2020-10-13 12:00:00 28.9 6 Sur 22 Sudeste 0 -- -- 38
2020-10-13 11:00:00 28.2 6 Noroeste 23 Sur 0 -- -- 45
2020-10-13 10:00:00 26.9 9 Noroeste 15 Noroeste 0 -- -- 37
2020-10-13 09:00:00 -- -- -- -- -- -- -- -- --
2020-10-13 08:00:00 22.5 6 Noroeste 14 Sur 0 -- -- 46
2020-10-13 07:00:00 24.5 11 Norte 20 Nordeste 0 -- -- 30
2020-10-13 06:00:00 22.7 11 Nordeste 21 Norte 0 -- -- 50
2020-10-13 05:00:00 22.9 13 Nordeste 20 Nordeste 0 -- -- 44
2020-10-13 04:00:00 24.1 14 Nordeste 22 Nordeste 0 -- -- 40
2020-10-13 03:00:00 26.2 14 Nordeste 30 Nordeste 0 -- -- 29
2020-10-13 02:00:00 27.8 18 Nordeste 45 Norte 0 -- -- 29
2020-10-13 01:00:00 27.6 33 Norte 44 Nordeste 0 -- -- 30
2020-10-13 00:00:00 -- -- -- -- -- -- -- -- --
2020-10-12 23:00:00 25.8 13 Nordeste 16 Nordeste 0 -- -- 36
2020-10-12 22:00:00 27.2 12 Norte 18 Norte 0 -- -- 34
2020-10-12 21:00:00 30.4 14 Norte 23 Nordeste 0 -- -- 23
2020-10-12 20:00:00 30.4 12 Norte 22 Norte 0 -- -- 24
2020-10-12 19:00:00 31.7 8 Norte 18 Nordeste 0 -- -- 23
2020-10-12 18:00:00 33.1 10 Norte 25 Norte 0 -- -- 22
2020-10-12 17:00:00 33.9 12 Nordeste 24 Nordeste 0 -- -- 22
2020-10-12 16:00:00 34.3 11 Nordeste 24 Norte 0 -- -- 22
2020-10-12 15:00:00 34.3 10 Nordeste 26 Nordeste 0 -- -- 23
2020-10-12 14:00:00 34.5 15 Nordeste 31 Nordeste 0 -- -- 21
2020-10-12 13:00:00 34.2 15 Nordeste 28 Nordeste 0 -- -- 22
2020-10-12 12:00:00 33 12 Nordeste 33 Nordeste 0 -- -- 23
2020-10-12 11:00:00 32.1 15 Nordeste 29 Norte 0 -- -- 24
2020-10-12 10:00:00 30.8 14 Norte 27 Nordeste 0 -- -- 24
2020-10-12 09:00:00 28.5 16 Norte 26 Norte 0 -- -- 26
2020-10-12 08:00:00 26.7 14 Nordeste 27 Norte 0 -- -- 29
2020-10-12 07:00:00 25.4 17 Norte 25 Norte 0 -- -- 29
2020-10-12 06:00:00 22.8 14 Nordeste 27 Nordeste 0 -- -- 44
2020-10-12 05:00:00 23.3 19 Nordeste 26 Nordeste 0 -- -- 48
2020-10-12 04:00:00 23.1 22 Nordeste 36 Nordeste 0 -- -- 48
2020-10-12 03:00:00 -- -- -- -- -- -- -- -- --
2020-10-12 02:00:00 25.9 16 Norte 27 Norte 0 -- -- 27
2020-10-12 01:00:00 23.8 17 Nordeste 25 Norte 0 -- -- 41
2020-10-12 00:00:00 25 14 Nordeste 24 Norte 0 -- -- 40
2020-10-11 23:00:00 22.6 15 Nordeste 25 Nordeste 0 -- -- 61
2020-10-11 22:00:00 22.5 18 Nordeste 24 Nordeste 0 -- -- 67
2020-10-11 21:00:00 23.4 16 Nordeste 27 Norte 0 -- -- 63
2020-10-11 20:00:00 -- -- -- -- -- -- -- -- --
2020-10-11 19:00:00 -- -- -- -- -- -- -- -- --
2020-10-11 18:00:00 27.7 22 Norte 37 Nordeste 0 -- -- 52
2020-10-11 17:00:00 27 26 Nordeste 41 Nordeste 0 -- -- 59
2020-10-11 16:00:00 28.7 24 Nordeste 39 Nordeste 0 -- -- 54
2020-10-11 15:00:00 28 31 Nordeste 42 Nordeste 0 -- -- 55
2020-10-11 14:00:00 28.5 29 Nordeste 42 Nordeste 0 -- -- 55
2020-10-11 13:00:00 27.8 31 Nordeste 46 Nordeste 0 -- -- 55
2020-10-11 12:00:00 28.5 26 Norte 42 Norte 0 -- -- 45
2020-10-11 11:00:00 27.8 23 Norte 48 Norte 0 -- -- 46
2020-10-11 10:00:00 23.4 31 Norte 42 Norte 0 -- -- 63
2020-10-11 09:00:00 21.9 9 Nordeste 22 Norte 0 -- -- 56
2020-10-11 08:00:00 21.6 4 Noroeste 40 Norte 0 -- -- 64
2020-10-11 07:00:00 20.1 23 Norte 57 Norte 0 -- -- 70
2020-10-11 06:00:00 19.8 33 Norte 49 Nordeste 0 -- -- 76
2020-10-11 05:00:00 19.9 27 Norte 46 Norte 0 -- -- 76
2020-10-11 04:00:00 19.3 4 Oeste 13 Nordeste 0 -- -- 78
2020-10-11 03:00:00 20.5 4 Noroeste 36 Norte 0 -- -- 72
2020-10-11 02:00:00 20.6 25 Norte 47 Norte 0 -- -- 64
2020-10-11 01:00:00 20.6 31 Norte 46 Norte 0 -- -- 69
2020-10-11 00:00:00 20.5 28 Norte 43 Norte 0 -- -- 70
2020-10-10 23:00:00 20.6 26 Nordeste 38 Nordeste 0 -- -- 71
2020-10-10 22:00:00 21.4 22 Norte 45 Norte 0 -- -- 65
2020-10-10 21:00:00 21.3 25 Norte 47 Norte 0 -- -- 67
2020-10-10 20:00:00 21.3 34 Norte 51 Norte 0 -- -- 68
2020-10-10 19:00:00 22.3 33 Norte 54 Norte 0 -- -- 67
2020-10-10 18:00:00 24.9 33 Nordeste 48 Norte 0 -- -- 59
2020-10-10 17:00:00 26.5 33 Nordeste 49 Norte 0 -- -- 54
2020-10-10 16:00:00 26.2 35 Norte 51 Nordeste 0 -- -- 57
2020-10-10 15:00:00 25.9 37 Nordeste 52 Nordeste 0 -- -- 58
2020-10-10 14:00:00 26.4 32 Nordeste 49 Nordeste 0 -- -- 58
2020-10-10 13:00:00 26.9 31 Nordeste 45 Nordeste 0 -- -- 55
2020-10-10 12:00:00 26.1 31 Nordeste 46 Norte 0 -- -- 53
2020-10-10 11:00:00 24 30 Norte 49 Nordeste 0 -- -- 60
2020-10-10 10:00:00 22.4 30 Norte 46 Norte 0 -- -- 66
2020-10-10 09:00:00 20.9 28 Norte 43 Norte 0 -- -- 68
2020-10-10 08:00:00 19.9 27 Norte 43 Norte 0 -- -- 69
2020-10-10 07:00:00 20.2 27 Norte 49 Norte 0 -- -- 71
2020-10-10 06:00:00 20.4 30 Norte 50 Norte 0 -- -- 70
2020-10-10 05:00:00 20.2 31 Norte 48 Norte 0 -- -- 70
2020-10-10 04:00:00 20 35 Norte 50 Norte 0 -- -- 73
2020-10-10 03:00:00 20.6 16 Norte 43 Norte 0 -- -- 79
2020-10-10 02:00:00 20.9 9 Norte 42 Norte 0 -- -- 72
2020-10-10 01:00:00 20.8 26 Norte 45 Norte 0 -- -- 69
2020-10-10 00:00:00 21.1 32 Norte 46 Norte 0 -- -- 70
2020-10-09 23:00:00 21.3 32 Norte 51 Norte 0 -- -- 70
2020-10-09 22:00:00 21.1 31 Norte 48 Norte 0 -- -- 75
2020-10-09 21:00:00 21.3 30 Norte 44 Nordeste 0 -- -- 77
2020-10-09 20:00:00 22.4 23 Norte 37 Norte 0 -- -- 72
2020-10-09 19:00:00 24.1 25 Norte 37 Norte 0 -- -- 66
2020-10-09 18:00:00 26.6 24 Norte 40 Norte 0 -- -- 57
2020-10-09 17:00:00 28 24 Nordeste 40 Nordeste 0 -- -- 53
2020-10-09 16:00:00 28.8 25 Nordeste 42 Norte 0 -- -- 49
2020-10-09 15:00:00 27 31 Norte 53 Nordeste 0 -- -- 57
2020-10-09 14:00:00 27.4 31 Nordeste 50 Nordeste 0 -- -- 58
2020-10-09 13:00:00 25.1 39 Nordeste 57 Norte 0 -- -- 65
2020-10-09 12:00:00 24.9 38 Nordeste 59 Norte 0 -- -- 64
2020-10-09 11:00:00 23.6 39 Norte 56 Norte 0 -- -- 71
2020-10-09 10:00:00 22.8 41 Norte 57 Nordeste 0 -- -- 72
2020-10-09 09:00:00 21.9 29 Norte 43 Norte 0 -- -- 73
2020-10-09 08:00:00 21 28 Norte 42 Norte 0 -- -- 74
2020-10-09 07:00:00 21.1 28 Nordeste 41 Nordeste 0 -- -- 73
2020-10-09 06:00:00 20.7 6 Norte 36 Norte 0 -- -- 73
2020-10-09 05:00:00 21.1 28 Norte 44 Norte 0 -- -- 74
2020-10-09 04:00:00 21.9 14 Norte 33 Nordeste 0 -- -- 67
2020-10-09 03:00:00 22.8 21 Nordeste 34 Norte 0 -- -- 63
2020-10-09 02:00:00 24.1 24 Norte 34 Norte 0 -- -- 55
2020-10-09 01:00:00 24.3 19 Norte 31 Norte 0 -- -- 54
2020-10-09 00:00:00 24.8 20 Norte 29 Norte 0 -- -- 53
2020-10-08 23:00:00 25.3 19 Norte 30 Norte 0 -- -- 50
2020-10-08 22:00:00 25.1 18 Norte 32 Norte 0 -- -- 52
2020-10-08 21:00:00 25.5 21 Norte 31 Norte 0 -- -- 50
2020-10-08 20:00:00 26.1 19 Norte 30 Norte 0 -- -- 49
2020-10-08 19:00:00 27.1 21 Norte 32 Nordeste 0 -- -- 50
2020-10-08 18:00:00 28.7 18 Norte 30 Norte 0 -- -- 44
2020-10-08 17:00:00 29.8 19 Nordeste 30 Nordeste 0 -- -- 42
2020-10-08 16:00:00 30.1 21 Nordeste 33 Nordeste 0 -- -- 39
2020-10-08 15:00:00 30 24 Nordeste 37 Nordeste 0 -- -- 35
2020-10-08 14:00:00 30 24 Nordeste 37 Nordeste 0 -- -- 36
2020-10-08 13:00:00 29.5 25 Nordeste 38 Nordeste 0 -- -- 38
2020-10-08 12:00:00 28.3 28 Norte 41 Nordeste 0 -- -- 37
2020-10-08 11:00:00 27.5 24 Norte 40 Norte 0 -- -- 37
2020-10-08 10:00:00 26.5 24 Norte 36 Norte 0 -- -- 32
2020-10-08 09:00:00 24.4 21 Norte 32 Norte 0 -- -- 29
2020-10-08 08:00:00 23 21 Norte 30 Norte 0 -- -- 31
2020-10-08 07:00:00 23.1 22 Norte 34 Norte 0 -- -- 29
2020-10-08 06:00:00 23 30 Nordeste 41 Nordeste 0 -- -- 29
2020-10-08 05:00:00 21.4 17 Nordeste 24 Nordeste 0 -- -- 45
2020-10-08 04:00:00 19.4 11 Nordeste 13 Nordeste 0 -- -- 77
2020-10-08 03:00:00 19.4 9 Nordeste 12 Nordeste 0 -- -- 87
2020-10-08 02:00:00 19.5 7 Nordeste 8 Nordeste 0 -- -- 90
2020-10-08 01:00:00 19.9 5 Nordeste 9 Nordeste 0 -- -- 89
2020-10-08 00:00:00 20.4 7 Nordeste 11 Nordeste 0 -- -- 87
2020-10-07 23:00:00 20.8 9 Nordeste 11 Nordeste 0 -- -- 87
2020-10-07 22:00:00 21.2 4 Este 8 Nordeste 0 -- -- 85
2020-10-07 21:00:00 21.9 6 Nordeste 12 Nordeste 0 -- -- 82
2020-10-07 20:00:00 23.1 8 Nordeste 13 Nordeste 0 -- -- 78
2020-10-07 19:00:00 24.4 11 Nordeste 16 Nordeste 0 -- -- 72
2020-10-07 18:00:00 26.9 11 Nordeste 21 Nordeste 0 -- -- 62
2020-10-07 17:00:00 27.4 15 Nordeste 24 Nordeste 0 -- -- 61
2020-10-07 16:00:00 27.9 15 Nordeste 24 Nordeste 0 -- -- 60
2020-10-07 15:00:00 27.2 16 Nordeste 27 Este 0 -- -- 63
2020-10-07 14:00:00 26.5 15 Nordeste 27 Nordeste 0 -- -- 65
2020-10-07 13:00:00 26.3 16 Nordeste 24 Este 0 -- -- 65
2020-10-07 12:00:00 26.2 14 Nordeste 27 Este 0 -- -- 64
2020-10-07 11:00:00 24.3 12 Nordeste 19 Nordeste 0 -- -- 70
2020-10-07 10:00:00 22.4 13 Nordeste 21 Norte 0 -- -- 75
2020-10-07 09:00:00 19.8 2 Sudeste 5 Nordeste 0 -- -- 71
2020-10-07 08:00:00 18.6 3 Norte 8 Oeste 0 -- -- 72
2020-10-07 07:00:00 18.9 4 Oeste 13 Nordeste 0 -- -- 76
2020-10-07 06:00:00 18.6 12 Nordeste 20 Norte 0 -- -- 76
2020-10-07 05:00:00 18.5 16 Nordeste 21 Nordeste 0 -- -- 91
2020-10-07 04:00:00 18.7 10 Norte 15 Norte 0 -- -- 89
2020-10-07 03:00:00 19 5 Norte 23 Nordeste 0 -- -- 85
2020-10-07 02:00:00 19.3 17 Norte 31 Norte 0 -- -- 86
2020-10-07 01:00:00 19.5 20 Nordeste 40 Nordeste 0 -- -- 85
2020-10-07 00:00:00 19.9 24 Nordeste 38 Nordeste 0 -- -- 83
2020-10-06 23:00:00 20.1 21 Nordeste 43 Nordeste 0 -- -- 82
2020-10-06 22:00:00 20.1 23 Nordeste 37 Norte 0 -- -- 83
2020-10-06 21:00:00 20.5 22 Nordeste 41 Nordeste 0 -- -- 79
2020-10-06 20:00:00 20.7 27 Nordeste 36 Nordeste 0 -- -- 80
2020-10-06 19:00:00 21.4 24 Norte 36 Norte 0 -- -- 78
2020-10-06 18:00:00 21.6 29 Norte 41 Nordeste 0 -- -- 77
2020-10-06 17:00:00 22.4 22 Nordeste 39 Nordeste 0 -- -- 76
2020-10-06 16:00:00 22.3 19 Nordeste 32 Nordeste 0 -- -- 75
2020-10-06 15:00:00 21.5 24 Nordeste 41 Nordeste 0 -- -- 78
2020-10-06 14:00:00 22.1 29 Nordeste 40 Nordeste 0 -- -- 71
2020-10-06 13:00:00 22.9 24 Nordeste 34 Nordeste 0 -- -- 71
2020-10-06 12:00:00 21.7 21 Nordeste 39 Norte 0 -- -- 75
2020-10-06 11:00:00 20.8 24 Nordeste 43 Norte 0 -- -- 78
2020-10-06 10:00:00 19.8 28 Norte 43 Norte 0 -- -- 81
2020-10-06 09:00:00 19.2 32 Norte 50 Norte 0 -- -- 83
2020-10-06 08:00:00 18.8 31 Norte 45 Norte 0 -- -- 85
2020-10-06 07:00:00 18.7 25 Norte 39 Norte 0 -- -- 89
2020-10-06 06:00:00 19 23 Norte 35 Norte 0 -- -- 87
2020-10-06 05:00:00 19.3 23 Nordeste 34 Nordeste 0 -- -- 84
2020-10-06 04:00:00 19.3 24 Norte 39 Norte 0 -- -- 85
2020-10-06 03:00:00 19.4 26 Norte 36 Norte 0 -- -- 87
2020-10-06 02:00:00 19.6 18 Norte 28 Norte 0 -- -- 87
2020-10-06 01:00:00 19.8 15 Nordeste 30 Nordeste 0 -- -- 87
2020-10-06 00:00:00 19.9 17 Nordeste 29 Nordeste 0 -- -- 86
2020-10-05 23:00:00 20 18 Norte 32 Norte 0 -- -- 84
2020-10-05 22:00:00 20.1 23 Norte 37 Norte 0 -- -- 82
2020-10-05 21:00:00 19.9 20 Norte 33 Norte 0 -- -- 79
2020-10-05 20:00:00 20.2 19 Norte 30 Nordeste 0 -- -- 77
2020-10-05 19:00:00 21.1 21 Nordeste 41 Nordeste 0 -- -- 72
2020-10-05 18:00:00 22.8 23 Nordeste 42 Norte 0 -- -- 63
2020-10-05 17:00:00 23.7 32 Nordeste 48 Nordeste 0 -- -- 58
2020-10-05 16:00:00 25.1 30 Nordeste 49 Norte 0 -- -- 56
2020-10-05 15:00:00 24.8 33 Nordeste 47 Nordeste 0 -- -- 58
2020-10-05 14:00:00 25.2 28 Nordeste 45 Nordeste 0 -- -- 59
2020-10-05 13:00:00 24.6 28 Nordeste 42 Nordeste 0 -- -- 61
2020-10-05 12:00:00 22.9 26 Norte 40 Nordeste 0 -- -- 69
2020-10-05 11:00:00 22 27 Nordeste 51 Norte 0 -- -- 73
2020-10-05 10:00:00 20.2 32 Norte 45 Norte 0 -- -- 80
2020-10-05 09:00:00 19.6 26 Nordeste 42 Nordeste 0 -- -- 82
2020-10-05 08:00:00 19.2 24 Norte 39 Norte 0 -- -- 78
2020-10-05 07:00:00 19.1 22 Norte 36 Norte 0 -- -- 82
2020-10-05 06:00:00 19.1 21 Norte 36 Norte 0 -- -- 81
2020-10-05 05:00:00 19.6 15 Norte 35 Norte 0 -- -- 76
2020-10-05 04:00:00 19.3 21 Norte 39 Norte 0 -- -- 75
2020-10-05 03:00:00 19.3 20 Norte 39 Norte 0 -- -- 73
2020-10-05 02:00:00 19.6 28 Norte 42 Norte 0 -- -- 78
2020-10-05 01:00:00 20.1 20 Norte 30 Norte 0 -- -- 71
2020-10-05 00:00:00 20.2 21 Norte 42 Norte 0 -- -- 70
2020-10-04 23:00:00 19.4 24 Norte 46 Norte 0 -- -- 78
2020-10-04 22:00:00 19.7 23 Norte 41 Norte 0 -- -- 75
2020-10-04 21:00:00 19.9 27 Norte 52 Norte 0 -- -- 74
2020-10-04 20:00:00 19.9 30 Norte 57 Norte 0 -- -- 72
2020-10-04 19:00:00 20.9 32 Norte 57 Norte 0 -- -- 66
2020-10-04 18:00:00 22.1 35 Norte 54 Norte 0 -- -- 65
2020-10-04 17:00:00 23 41 Norte 58 Norte 0 -- -- 67
2020-10-04 16:00:00 23.5 36 Norte 54 Norte 0.2 -- -- 68
2020-10-04 15:00:00 22.7 35 Norte 49 Norte 0 -- -- 74
2020-10-04 14:00:00 20.7 23 Norte 40 Nordeste 0 -- -- 90
2020-10-04 13:00:00 19.5 27 Norte 39 Norte 0.4 -- -- 93
2020-10-04 12:00:00 19.7 22 Norte 38 Norte 1.4 -- -- 93
2020-10-04 11:00:00 20.2 19 Nordeste 35 Norte 2.4 -- -- 93
2020-10-04 10:00:00 22.4 16 Nordeste 26 Norte 0 -- -- 69
2020-10-04 09:00:00 22 12 Norte 31 Norte 0 -- -- 67
2020-10-04 08:00:00 19.8 18 Norte 33 Norte 0 -- -- 86
2020-10-04 07:00:00 19.7 24 Norte 38 Norte 0 -- -- 89
2020-10-04 06:00:00 21.7 14 Norte 44 Norte 0 -- -- 72
2020-10-04 05:00:00 21.5 23 Norte 41 Norte 0 -- -- 73
2020-10-04 04:00:00 20.9 23 Norte 40 Norte 0 -- -- 75
2020-10-04 03:00:00 21.4 24 Norte 53 Norte 0 -- -- 72
2020-10-04 02:00:00 21.6 24 Norte 40 Norte 0 -- -- 70
2020-10-04 01:00:00 21.7 27 Norte 49 Norte 0 -- -- 66
2020-10-04 00:00:00 20.1 24 Norte 36 Norte 0 -- -- 76
2020-10-03 23:00:00 19.5 21 Nordeste 36 Nordeste 0 -- -- 84
2020-10-03 22:00:00 20.7 20 Nordeste 34 Nordeste 0 -- -- 76
2020-10-03 21:00:00 21.3 18 Norte 39 Norte 0 -- -- 71
2020-10-03 20:00:00 21.5 18 Norte 40 Norte 0 -- -- 68
2020-10-03 19:00:00 23 23 Norte 47 Norte 0 -- -- 63
2020-10-03 18:00:00 23.5 29 Norte 49 Norte 0 -- -- 68
2020-10-03 17:00:00 24.4 27 Norte 51 Norte 0 -- -- 67
2020-10-03 16:00:00 25.6 31 Norte 50 Norte 0 -- -- 60
2020-10-03 15:00:00 26.3 30 Norte 49 Norte 0 -- -- 56
2020-10-03 14:00:00 25.5 30 Norte 53 Norte 0 -- -- 59
2020-10-03 13:00:00 25.4 30 Norte 50 Norte 0 -- -- 60
2020-10-03 12:00:00 23.8 25 Norte 46 Norte 0 -- -- 66
2020-10-03 11:00:00 22.6 29 Norte 44 Norte 0 -- -- 68
2020-10-03 10:00:00 22.1 28 Norte 49 Norte 0 -- -- 64
2020-10-03 09:00:00 19.9 28 Norte 40 Norte 0 -- -- 76
2020-10-03 08:00:00 20.8 23 Norte 46 Norte 0 -- -- 62
2020-10-03 07:00:00 20.6 28 Norte 50 Norte 0 -- -- 66
2020-10-03 06:00:00 19.9 32 Norte 53 Norte 0 -- -- 70
2020-10-03 05:00:00 20.2 28 Norte 46 Norte 0 -- -- 71
2020-10-03 04:00:00 20.2 27 Norte 48 Norte 0 -- -- 71
2020-10-03 03:00:00 20.5 33 Norte 57 Norte 0 -- -- 64
2020-10-03 02:00:00 20.3 36 Norte 63 Norte 0 -- -- 65
2020-10-03 01:00:00 20.7 31 Norte 51 Norte 0 -- -- 67
2020-10-03 00:00:00 20 30 Norte 58 Nordeste 0 -- -- 73
2020-10-02 23:00:00 20 30 Norte 49 Norte 0 -- -- 79
2020-10-02 22:00:00 20.3 27 Norte 50 Norte 0 -- -- 76
2020-10-02 21:00:00 20.8 27 Norte 50 Norte 0 -- -- 72
2020-10-02 20:00:00 20.1 29 Norte 55 Norte 0 -- -- 80
2020-10-02 19:00:00 20.8 33 Norte 50 Norte 0 -- -- 73
2020-10-02 18:00:00 22.7 26 Norte 61 Norte 0 -- -- 63
2020-10-02 17:00:00 23.6 44 Norte 64 Norte 0 -- -- 63
2020-10-02 16:00:00 26.2 35 Norte 57 Norte 0 -- -- 49
2020-10-02 15:00:00 25.3 37 Norte 57 Norte 0 -- -- 49
2020-10-02 14:00:00 25 39 Norte 61 Norte 0 -- -- 54
2020-10-02 13:00:00 24.5 34 Norte 55 Norte 0 -- -- 52
2020-10-02 12:00:00 23 28 Norte 48 Norte 0 -- -- 56
2020-10-02 11:00:00 21.5 28 Norte 47 Norte 0 -- -- 57
2020-10-02 10:00:00 20.8 28 Norte 51 Norte 0 -- -- 62
2020-10-02 09:00:00 19.9 33 Norte 49 Norte 0 -- -- 71
2020-10-02 08:00:00 19.7 26 Norte 44 Norte 0 -- -- 65
2020-10-02 07:00:00 19.2 25 Norte 49 Norte 0 -- -- 72
2020-10-02 06:00:00 18.9 26 Norte 44 Norte 0 -- -- 80
2020-10-02 05:00:00 19.3 26 Norte 45 Norte 0 -- -- 76
2020-10-02 04:00:00 19.8 28 Norte 50 Norte 0 -- -- 74
2020-10-02 03:00:00 20.3 23 Norte 54 Norte 0 -- -- 67
2020-10-02 02:00:00 20.2 37 Norte 57 Norte 0 -- -- 68
2020-10-02 01:00:00 20.2 27 Norte 52 Norte 0 -- -- 68
2020-10-02 00:00:00 20.5 32 Norte 47 Norte 0 -- -- 74
2020-10-01 23:00:00 21.1 31 Norte 55 Norte 0 -- -- 65
2020-10-01 22:00:00 20.6 33 Norte 60 Norte 0 -- -- 67
2020-10-01 21:00:00 20.8 32 Norte 60 Norte 0 -- -- 65
2020-10-01 20:00:00 21.3 30 Norte 57 Norte 0 -- -- 62
2020-10-01 19:00:00 22 37 Norte 57 Norte 0 -- -- 61
2020-10-01 18:00:00 23.5 38 Norte 60 Norte 0 -- -- 56
2020-10-01 17:00:00 24.5 37 Norte 58 Norte 0 -- -- 58
2020-10-01 16:00:00 25.5 39 Norte 56 Nordeste 0 -- -- 52
2020-10-01 15:00:00 25.5 40 Norte 60 Norte 0 -- -- 54
2020-10-01 14:00:00 26 38 Norte 57 Norte 0 -- -- 48
2020-10-01 13:00:00 25.2 37 Norte 54 Norte 0 -- -- 51
2020-10-01 12:00:00 24 35 Norte 49 Norte 0 -- -- 57
2020-10-01 11:00:00 22.4 30 Norte 47 Norte 0 -- -- 65
2020-10-01 10:00:00 21.7 33 Norte 49 Norte 0 -- -- 68
2020-10-01 09:00:00 21 23 Norte 37 Norte 0 -- -- 68
2020-10-01 08:00:00 20.3 26 Norte 45 Norte 0 -- -- 65
2020-10-01 07:00:00 19.9 19 Norte 36 Norte 0 -- -- 70
2020-10-01 06:00:00 19.9 21 Norte 35 Norte 0 -- -- 65
2020-10-01 05:00:00 20 25 Norte 45 Norte 0 -- -- 65
2020-10-01 04:00:00 19.9 30 Norte 44 Norte 0 -- -- 66
2020-10-01 03:00:00 20.2 27 Norte 49 Norte 0 -- -- 66
2020-10-01 02:00:00 20.4 28 Norte 45 Norte 0 -- -- 64
2020-10-01 01:00:00 20.7 26 Norte 50 Norte 0 -- -- 64
2020-10-01 00:00:00 20.7 23 Norte 50 Norte 0 -- -- 63
2020-09-30 23:00:00 20.8 27 Norte 51 Norte 0 -- -- 62
2020-09-30 22:00:00 20.7 33 Norte 46 Norte 0 -- -- 63
2020-09-30 21:00:00 21.1 35 Norte 49 Norte 0 -- -- 58
2020-09-30 20:00:00 21.4 33 Norte 54 Norte 0 -- -- 63
2020-09-30 19:00:00 22 34 Norte 51 Norte 0 -- -- 65
2020-09-30 18:00:00 23.5 32 Norte 55 Norte 0 -- -- 62
2020-09-30 17:00:00 24.7 34 Norte 52 Norte 0 -- -- 59
2020-09-30 16:00:00 25.3 32 Nordeste 49 Nordeste 0 -- -- 59
2020-09-30 15:00:00 25.8 30 Nordeste 47 Nordeste 0 -- -- 52
2020-09-30 14:00:00 25.7 30 Nordeste 46 Nordeste 0 -- -- 55
2020-09-30 13:00:00 25.7 28 Nordeste 49 Nordeste 0 -- -- 53
2020-09-30 12:00:00 25.3 26 Nordeste 41 Norte 0 -- -- 53
2020-09-30 11:00:00 24 25 Norte 41 Norte 0 -- -- 56
2020-09-30 10:00:00 22.1 32 Norte 48 Norte 0 -- -- 59
2020-09-30 09:00:00 20.9 24 Norte 37 Norte 0 -- -- 64
2020-09-30 08:00:00 19.5 22 Norte 37 Norte 0 -- -- 68
2020-09-30 07:00:00 19.2 21 Norte 34 Norte 0 -- -- 74
2020-09-30 06:00:00 19.2 19 Norte 31 Norte 0 -- -- 71
2020-09-30 05:00:00 19.2 19 Norte 35 Norte 0 -- -- 72
2020-09-30 04:00:00 19.3 20 Norte 31 Norte 0 -- -- 72
2020-09-30 03:00:00 19.4 18 Norte 30 Norte 0 -- -- 71
2020-09-30 02:00:00 19.7 19 Norte 33 Norte 0 -- -- 69
2020-09-30 01:00:00 20.1 22 Norte 37 Norte 0 -- -- 67
2020-09-30 00:00:00 20.2 23 Norte 40 Norte 0 -- -- 68